Pontiac, Missouri
Current Conditions -  °F | °C
As of 9:53 AM on Monday 24 Nov 2014 (Local Time) from KBPK Reporting Station
Clear Clear  
Wind Chill: 39°   Ceiling: Unl
Heat Index: 45°   Visibility: 10mi
Dew Point: 29°   Wind: 14mph
Humidity: 53%   Direction: 270°W
Pressure: 29.8"   Gusts: 26mph
Location:  36.52°N, 92.6°W
Report Text: KBPK 241553Z AUTO 27012G23KT 230V320 10SM CLR 07/M02 A2980 RMK AO2 SLP090 T00721017
Loading
Personal Weather Stations






























Interactive Weather Map New forecast layout! Learn more

10-Day Weather Forecast

Advertisements
Track Severe Weather on mobile